sensor_id;sensor_type;location;lat;lon;timestamp;pressure;altitude;pressure_sealevel;temperature;humidity
10060;BME280;5069;49.306;8.636;2022-11-11T00:01:55;101982.28;;;8.58;100.00
10060;BME280;5069;49.306;8.636;2022-11-11T00:05:16;101975.25;;;8.60;100.00
10060;BME280;5069;49.306;8.636;2022-11-11T00:08:36;101982.28;;;8.58;100.00
10060;BME280;5069;49.306;8.636;2022-11-11T00:11:56;101979.66;;;8.48;100.00
10060;BME280;5069;49.306;8.636;2022-11-11T00:15:16;101977.03;;;8.46;100.00
10060;BME280;5069;49.306;8.636;2022-11-11T00:18:36;101971.75;;;8.55;100.00
10060;BME280;5069;49.306;8.636;2022-11-11T00:22:20;101970.88;;;8.55;100.00
10060;BME280;5069;49.306;8.636;2022-11-11T00:25:50;101966.50;;;8.55;100.00
10060;BME280;5069;49.306;8.636;2022-11-11T00:29:11;101973.50;;;8.56;100.00
10060;BME280;5069;49.306;8.636;2022-11-11T00:32:32;101979.66;;;8.48;100.00
10060;BME280;5069;49.306;8.636;2022-11-11T00:35:53;101977.88;;;8.38;100.00
10060;BME280;5069;49.306;8.636;2022-11-11T00:39:13;101972.63;;;8.38;100.00
10060;BME280;5069;49.306;8.636;2022-11-11T00:42:33;101977.91;;;8.30;100.00
10060;BME280;5069;49.306;8.636;2022-11-11T00:45:53;101990.13;;;8.29;100.00
10060;BME280;5069;49.306;8.636;2022-11-11T00:49:33;101996.28;;;8.30;100.00
10060;BME280;5069;49.306;8.636;2022-11-11T00:53:15;102002.34;;;8.17;100.00
10060;BME280;5069;49.306;8.636;2022-11-11T00:56:39;102011.09;;;8.01;100.00
10060;BME280;5069;49.306;8.636;2022-11-11T00:59:59;102003.19;;;8.04;100.00
10060;BME280;5069;49.306;8.636;2022-11-11T01:03:20;102007.59;;;8.15;100.00
10060;BME280;5069;49.306;8.636;2022-11-11T01:06:40;102011.97;;;8.07;100.00
10060;BME280;5069;49.306;8.636;2022-11-11T01:10:02;102011.97;;;8.07;100.00
10060;BME280;5069;49.306;8.636;2022-11-11T01:13:30;102018.09;;;8.15;100.00
10060;BME280;5069;49.306;8.636;2022-11-11T01:16:51;102031.22;;;8.11;100.00
10060;BME280;5069;49.306;8.636;2022-11-11T01:20:11;102025.09;;;8.09;100.00
10060;BME280;5069;49.306;8.636;2022-11-11T01:23:33;102026.00;;;8.14;100.00
10060;BME280;5069;49.306;8.636;2022-11-11T01:26:53;102019.84;;;8.10;100.00
10060;BME280;5069;49.306;8.636;2022-11-11T01:30:13;102020.72;;;8.06;100.00
10060;BME280;5069;49.306;8.636;2022-11-11T01:33:34;102017.22;;;8.06;100.00
10060;BME280;5069;49.306;8.636;2022-11-11T01:36:54;102011.09;;;8.05;100.00
10060;BME280;5069;49.306;8.636;2022-11-11T01:40:14;102011.97;;;8.06;100.00
10060;BME280;5069;49.306;8.636;2022-11-11T01:43:34;102011.06;;;7.95;100.00
10060;BME280;5069;49.306;8.636;2022-11-11T01:46:58;102004.72;;;7.41;100.00
10060;BME280;5069;49.306;8.636;2022-11-11T01:50:18;102011.59;;;7.21;100.00
10060;BME280;5069;49.306;8.636;2022-11-11T01:53:38;102027.25;;;7.09;100.00
10060;BME280;5069;49.306;8.636;2022-11-11T01:57:14;102028.94;;;6.97;100.00
10060;BME280;5069;49.306;8.636;2022-11-11T02:00:36;102032.38;;;6.90;100.00
10060;BME280;5069;49.306;8.636;2022-11-11T02:03:57;102033.22;;;6.89;100.00
10060;BME280;5069;49.306;8.636;2022-11-11T02:07:38;102021.03;;;6.93;100.00
10060;BME280;5069;49.306;8.636;2022-11-11T02:11:04;102017.59;;;7.00;100.00
10060;BME280;5069;49.306;8.636;2022-11-11T02:14:26;102017.56;;;6.97;100.00
10060;BME280;5069;49.306;8.636;2022-11-11T02:17:55;102010.59;;;6.97;100.00
10060;BME280;5069;49.306;8.636;2022-11-11T02:21:23;102014.06;;;6.96;100.00
10060;BME280;5069;49.306;8.636;2022-11-11T02:24:45;102009.72;;;6.98;100.00
10060;BME280;5069;49.306;8.636;2022-11-11T02:28:06;102008.91;;;7.05;100.00
10060;BME280;5069;49.306;8.636;2022-11-11T02:31:28;102013.28;;;7.13;100.00
10060;BME280;5069;49.306;8.636;2022-11-11T02:34:48;102009.81;;;7.14;100.00
10060;BME280;5069;49.306;8.636;2022-11-11T02:38:09;102015.88;;;7.03;100.00
10060;BME280;5069;49.306;8.636;2022-11-11T02:41:31;102015.81;;;6.97;100.00
10060;BME280;5069;49.306;8.636;2022-11-11T02:45:10;102023.72;;;7.00;100.00
10060;BME280;5069;49.306;8.636;2022-11-11T02:48:30;102005.28;;;6.90;100.00
10060;BME280;5069;49.306;8.636;2022-11-11T02:51:50;102010.53;;;6.91;100.00
10060;BME280;5069;49.306;8.636;2022-11-11T02:55:10;102006.22;;;6.98;100.00
10060;BME280;5069;49.306;8.636;2022-11-11T02:58:31;102002.81;;;7.10;100.00
10060;BME280;5069;49.306;8.636;2022-11-11T03:01:51;102000.13;;;7.06;100.00
10060;BME280;5069;49.306;8.636;2022-11-11T03:05:11;102012.38;;;7.04;100.00
10060;BME280;5069;49.306;8.636;2022-11-11T03:08:31;102014.06;;;6.93;100.00
10060;BME280;5069;49.306;8.636;2022-11-11T03:11:51;102019.34;;;6.99;100.00
10060;BME280;5069;49.306;8.636;2022-11-11T03:15:12;102023.72;;;6.99;100.00
10060;BME280;5069;49.306;8.636;2022-11-11T03:18:31;102032.47;;;6.99;100.00
10060;BME280;5069;49.306;8.636;2022-11-11T03:21:52;102028.94;;;6.94;100.00
10060;BME280;5069;49.306;8.636;2022-11-11T03:25:43;102039.38;;;6.88;100.00
10060;BME280;5069;49.306;8.636;2022-11-11T03:29:03;102044.59;;;6.88;100.00
10060;BME280;5069;49.306;8.636;2022-11-11T03:32:23;102061.09;;;6.78;100.00
10060;BME280;5069;49.306;8.636;2022-11-11T03:35:45;102060.06;;;6.61;100.00
10060;BME280;5069;49.306;8.636;2022-11-11T03:39:06;102060.00;;;6.49;100.00
10060;BME280;5069;49.306;8.636;2022-11-11T03:42:26;102071.16;;;6.33;100.00
10060;BME280;5069;49.306;8.636;2022-11-11T03:45:46;102072.75;;;6.18;100.00
10060;BME280;5069;49.306;8.636;2022-11-11T03:49:06;102071.97;;;6.26;100.00
10060;BME280;5069;49.306;8.636;2022-11-11T03:52:26;102078.94;;;6.27;100.00
10060;BME280;5069;49.306;8.636;2022-11-11T03:55:46;102074.50;;;6.21;100.00
10060;BME280;5069;49.306;8.636;2022-11-11T03:59:07;102071.91;;;6.19;100.00
10060;BME280;5069;49.306;8.636;2022-11-11T04:02:26;102080.53;;;6.12;100.00
10060;BME280;5069;49.306;8.636;2022-11-11T04:06:08;102087.41;;;6.04;100.00
10060;BME280;5069;49.306;8.636;2022-11-11T04:09:47;102090.88;;;6.00;100.00
10060;BME280;5069;49.306;8.636;2022-11-11T04:13:26;102097.94;;;6.07;100.00
10060;BME280;5069;49.306;8.636;2022-11-11T04:17:05;102087.53;;;6.13;100.00
10060;BME280;5069;49.306;8.636;2022-11-11T04:20:25;102097.22;;;6.19;100.00
10060;BME280;5069;49.306;8.636;2022-11-11T04:24:05;102092.00;;;6.23;100.00
10060;BME280;5069;49.306;8.636;2022-11-11T04:27:44;102087.69;;;6.27;100.00
10060;BME280;5069;49.306;8.636;2022-11-11T04:31:03;102098.03;;;6.13;100.00
10060;BME280;5069;49.306;8.636;2022-11-11T04:34:23;102099.56;;;5.96;100.00
10060;BME280;5069;49.306;8.636;2022-11-11T04:37:48;102104.53;;;5.81;100.00
10060;BME280;5069;49.306;8.636;2022-11-11T04:41:31;102112.19;;;5.66;100.00
10060;BME280;5069;49.306;8.636;2022-11-11T04:45:12;102119.88;;;5.54;100.00
10060;BME280;5069;49.306;8.636;2022-11-11T04:48:50;102116.53;;;5.64;100.00
10060;BME280;5069;49.306;8.636;2022-11-11T04:52:10;102123.75;;;5.83;100.00
10060;BME280;5069;49.306;8.636;2022-11-11T04:55:45;102121.28;;;5.91;100.00
10060;BME280;5069;49.306;8.636;2022-11-11T04:59:24;102117.66;;;5.82;100.00
10060;BME280;5069;49.306;8.636;2022-11-11T05:02:44;102125.53;;;5.84;100.00
10060;BME280;5069;49.306;8.636;2022-11-11T05:06:23;102141.22;;;5.84;100.00
10060;BME280;5069;49.306;8.636;2022-11-11T05:10:02;102138.78;;;5.95;100.00
10060;BME280;5069;49.306;8.636;2022-11-11T05:13:22;102145.06;;;6.07;100.00
10060;BME280;5069;49.306;8.636;2022-11-11T05:17:01;102145.19;;;6.15;100.00
10060;BME280;5069;49.306;8.636;2022-11-11T05:20:40;102140.88;;;6.21;100.00
10060;BME280;5069;49.306;8.636;2022-11-11T05:24:19;102134.84;;;6.29;100.00
10060;BME280;5069;49.306;8.636;2022-11-11T05:27:58;102132.31;;;6.36;100.00
10060;BME280;5069;49.306;8.636;2022-11-11T05:31:18;102129.75;;;6.41;100.00
10060;BME280;5069;49.306;8.636;2022-11-11T05:34:38;102133.34;;;6.49;100.00
10060;BME280;5069;49.306;8.636;2022-11-11T05:38:01;102128.19;;;6.55;100.00
10060;BME280;5069;49.306;8.636;2022-11-11T05:41:39;102129.03;;;6.57;100.00
10060;BME280;5069;49.306;8.636;2022-11-11T05:44:59;102122.06;;;6.57;100.00
10060;BME280;5069;49.306;8.636;2022-11-11T05:48:19;102137.75;;;6.56;100.00
10060;BME280;5069;49.306;8.636;2022-11-11T05:51:39;102143.84;;;6.52;100.00
10060;BME280;5069;49.306;8.636;2022-11-11T05:54:59;102139.38;;;6.42;100.00
10060;BME280;5069;49.306;8.636;2022-11-11T05:58:19;102151.53;;;6.38;100.00
10060;BME280;5069;49.306;8.636;2022-11-11T06:01:39;102156.75;;;6.35;100.00
10060;BME280;5069;49.306;8.636;2022-11-11T06:05:00;102158.41;;;6.26;100.00
10060;BME280;5069;49.306;8.636;2022-11-11T06:08:19;102157.47;;;6.20;100.00
10060;BME280;5069;49.306;8.636;2022-11-11T06:11:39;102162.63;;;6.14;100.00
10060;BME280;5069;49.306;8.636;2022-11-11T06:14:59;102169.56;;;6.12;100.00
10060;BME280;5069;49.306;8.636;2022-11-11T06:18:19;102180.03;;;6.12;100.00
10060;BME280;5069;49.306;8.636;2022-11-11T06:21:39;102179.16;;;6.12;100.00
10060;BME280;5069;49.306;8.636;2022-11-11T06:25:17;102177.41;;;6.11;100.00
10060;BME280;5069;49.306;8.636;2022-11-11T06:28:56;102177.44;;;6.14;100.00
10060;BME280;5069;49.306;8.636;2022-11-11T06:32:16;102183.53;;;6.13;100.00
10060;BME280;5069;49.306;8.636;2022-11-11T06:35:37;102191.38;;;6.11;100.00
10060;BME280;5069;49.306;8.636;2022-11-11T06:38:58;102197.44;;;6.07;100.00
10060;BME280;5069;49.306;8.636;2022-11-11T06:42:18;102201.81;;;6.10;100.00
10060;BME280;5069;49.306;8.636;2022-11-11T06:45:38;102220.16;;;6.11;100.00
10060;BME280;5069;49.306;8.636;2022-11-11T06:48:58;102213.16;;;6.10;100.00
10060;BME280;5069;49.306;8.636;2022-11-11T06:52:18;102216.78;;;6.18;100.00
10060;BME280;5069;49.306;8.636;2022-11-11T06:55:39;102219.41;;;6.18;100.00
10060;BME280;5069;49.306;8.636;2022-11-11T06:58:59;102225.69;;;6.31;100.00
10060;BME280;5069;49.306;8.636;2022-11-11T07:02:19;102218.84;;;6.42;100.00
10060;BME280;5069;49.306;8.636;2022-11-11T07:05:39;102223.31;;;6.52;100.00
10060;BME280;5069;49.306;8.636;2022-11-11T07:08:59;102225.97;;;6.54;100.00
10060;BME280;5069;49.306;8.636;2022-11-11T07:12:20;102232.06;;;6.53;100.00
10060;BME280;5069;49.306;8.636;2022-11-11T07:15:42;102241.84;;;6.66;100.00
10060;BME280;5069;49.306;8.636;2022-11-11T07:19:02;102243.63;;;6.70;100.00
10060;BME280;5069;49.306;8.636;2022-11-11T07:22:22;102240.16;;;6.71;100.00
10060;BME280;5069;49.306;8.636;2022-11-11T07:25:42;102257.66;;;6.75;100.00
10060;BME280;5069;49.306;8.636;2022-11-11T07:29:02;102251.59;;;6.78;100.00
10060;BME280;5069;49.306;8.636;2022-11-11T07:32:22;102249.91;;;6.84;100.00
10060;BME280;5069;49.306;8.636;2022-11-11T07:35:42;102245.53;;;6.82;100.00
10060;BME280;5069;49.306;8.636;2022-11-11T07:39:02;102241.13;;;6.81;100.00
10060;BME280;5069;49.306;8.636;2022-11-11T07:42:27;102240.34;;;6.89;100.00
10060;BME280;5069;49.306;8.636;2022-11-11T07:45:51;102238.59;;;6.90;100.00
10060;BME280;5069;49.306;8.636;2022-11-11T07:49:11;102235.09;;;6.89;100.00
10060;BME280;5069;49.306;8.636;2022-11-11T07:52:31;102239.59;;;6.99;100.00
10060;BME280;5069;49.306;8.636;2022-11-11T07:55:51;102240.59;;;7.11;100.00
10060;BME280;5069;49.306;8.636;2022-11-11T07:59:12;102249.38;;;7.19;100.00
10060;BME280;5069;49.306;8.636;2022-11-11T08:02:31;102245.97;;;7.26;100.00
10060;BME280;5069;49.306;8.636;2022-11-11T08:05:51;102253.88;;;7.30;100.00
10060;BME280;5069;49.306;8.636;2022-11-11T08:09:11;102253.09;;;7.40;100.00
10060;BME280;5069;49.306;8.636;2022-11-11T08:12:31;102251.41;;;7.45;100.00
10060;BME280;5069;49.306;8.636;2022-11-11T08:16:12;102252.38;;;7.55;100.00
10060;BME280;5069;49.306;8.636;2022-11-11T08:19:32;102252.38;;;7.55;100.00
10060;BME280;5069;49.306;8.636;2022-11-11T08:22:52;102255.91;;;7.63;100.00
10060;BME280;5069;49.306;8.636;2022-11-11T08:26:34;102252.41;;;7.64;100.00
10060;BME280;5069;49.306;8.636;2022-11-11T08:29:54;102250.72;;;7.71;100.00
10060;BME280;5069;49.306;8.636;2022-11-11T08:33:14;102242.03;;;7.78;100.00
10060;BME280;5069;49.306;8.636;2022-11-11T08:36:54;102232.44;;;7.81;100.00
10060;BME280;5069;49.306;8.636;2022-11-11T08:40:14;102239.47;;;7.85;100.00
10060;BME280;5069;49.306;8.636;2022-11-11T08:43:35;102232.50;;;7.91;100.00
10060;BME280;5069;49.306;8.636;2022-11-11T08:46:56;102236.09;;;8.02;100.00
10060;BME280;5069;49.306;8.636;2022-11-11T08:50:17;102232.59;;;8.09;100.00
10060;BME280;5069;49.306;8.636;2022-11-11T08:53:37;102238.72;;;8.09;100.00
10060;BME280;5069;49.306;8.636;2022-11-11T08:56:57;102232.59;;;8.06;100.00
10060;BME280;5069;49.306;8.636;2022-11-11T09:00:17;102232.59;;;8.09;100.00
10060;BME280;5069;49.306;8.636;2022-11-11T09:03:39;102224.78;;;8.16;100.00
10060;BME280;5069;49.306;8.636;2022-11-11T09:07:02;102222.25;;;8.33;100.00
10060;BME280;5069;49.306;8.636;2022-11-11T09:10:21;102219.72;;;8.54;100.00
10060;BME280;5069;49.306;8.636;2022-11-11T09:13:41;102229.34;;;8.46;100.00
10060;BME280;5069;49.306;8.636;2022-11-11T09:17:02;102222.34;;;8.51;100.00
10060;BME280;5069;49.306;8.636;2022-11-11T09:20:22;102231.13;;;8.56;100.00
10060;BME280;5069;49.306;8.636;2022-11-11T09:23:44;102225.88;;;8.56;100.00
10060;BME280;5069;49.306;8.636;2022-11-11T09:27:04;102229.44;;;8.70;100.00
10060;BME280;5069;49.306;8.636;2022-11-11T09:30:25;102235.56;;;8.77;100.00
10060;BME280;5069;49.306;8.636;2022-11-11T09:33:46;102230.34;;;8.85;100.00
10060;BME280;5069;49.306;8.636;2022-11-11T09:37:06;102238.25;;;8.97;100.00
10060;BME280;5069;49.306;8.636;2022-11-11T09:40:37;102244.41;;;9.02;100.00
10060;BME280;5069;49.306;8.636;2022-11-11T09:44:01;102253.22;;;9.13;100.00
10060;BME280;5069;49.306;8.636;2022-11-11T09:47:38;102249.72;;;9.25;100.00
10060;BME280;5069;49.306;8.636;2022-11-11T09:51:03;102247.09;;;9.41;100.00
10060;BME280;5069;49.306;8.636;2022-11-11T09:58:23;102257.66;;;9.57;100.00
10060;BME280;5069;49.306;8.636;2022-11-11T10:01:51;102259.38;;;9.68;100.00
10060;BME280;5069;49.306;8.636;2022-11-11T10:05:15;102259.38;;;9.70;100.00
10060;BME280;5069;49.306;8.636;2022-11-11T10:08:41;102262.03;;;9.67;100.00
10060;BME280;5069;49.306;8.636;2022-11-11T10:12:13;102255.88;;;9.89;100.00
10060;BME280;5069;49.306;8.636;2022-11-11T10:15:40;102250.59;;;9.80;100.00
10060;BME280;5069;49.306;8.636;2022-11-11T10:19:39;102254.97;;;10.05;100.00
10060;BME280;5069;49.306;8.636;2022-11-11T10:23:07;102247.06;;;10.19;100.00
10060;BME280;5069;49.306;8.636;2022-11-11T10:26:39;102239.09;;;10.42;100.00
10060;BME280;5069;49.306;8.636;2022-11-11T10:30:07;102232.88;;;10.58;100.00
10060;BME280;5069;49.306;8.636;2022-11-11T10:33:49;102231.88;;;10.77;100.00
10060;BME280;5069;49.306;8.636;2022-11-11T10:37:27;102224.78;;;10.88;100.00
10060;BME280;5069;49.306;8.636;2022-11-11T10:40:56;102217.75;;;10.90;100.00
10060;BME280;5069;49.306;8.636;2022-11-11T10:44:32;102211.56;;;10.94;100.00
10060;BME280;5069;49.306;8.636;2022-11-11T10:48:02;102207.25;;;10.81;100.00
10060;BME280;5069;49.306;8.636;2022-11-11T10:51:27;102195.69;;;11.03;100.00
10060;BME280;5069;49.306;8.636;2022-11-11T10:54:54;102200.00;;;11.13;100.00
10060;BME280;5069;49.306;8.636;2022-11-11T10:58:22;102193.03;;;11.05;100.00
10060;BME280;5069;49.306;8.636;2022-11-11T11:01:56;102181.53;;;11.13;100.00
10060;BME280;5069;49.306;8.636;2022-11-11T11:08:58;102180.50;;;11.33;100.00
10060;BME280;5069;49.306;8.636;2022-11-11T11:12:25;102171.63;;;11.41;100.00
10060;BME280;5069;49.306;8.636;2022-11-11T11:15:54;102170.00;;;11.25;100.00
10060;BME280;5069;49.306;8.636;2022-11-11T11:19:16;102168.38;;;11.07;100.00
10060;BME280;5069;49.306;8.636;2022-11-11T11:22:45;102156.75;;;11.28;100.00
10060;BME280;5069;49.306;8.636;2022-11-11T11:26:08;102162.13;;;11.17;100.00
10060;BME280;5069;49.306;8.636;2022-11-11T11:33:03;102163.63;;;11.49;100.00
10060;BME280;5069;49.306;8.636;2022-11-11T11:36:23;102165.53;;;11.32;100.00
10060;BME280;5069;49.306;8.636;2022-11-11T11:39:43;102162.75;;;11.45;100.00
10060;BME280;5069;49.306;8.636;2022-11-11T11:43:23;102168.75;;;11.64;100.00
10060;BME280;5069;49.306;8.636;2022-11-11T11:46:44;102165.97;;;11.81;100.00
10060;BME280;5069;49.306;8.636;2022-11-11T11:50:23;102166.75;;;11.90;100.00
10060;BME280;5069;49.306;8.636;2022-11-11T12:01:13;102168.69;;;11.70;100.00
10060;BME280;5069;49.306;8.636;2022-11-11T12:08:39;102169.94;;;11.31;100.00
10060;BME280;5069;49.306;8.636;2022-11-11T12:12:13;102175.19;;;11.36;100.00
10060;BME280;5069;49.306;8.636;2022-11-11T12:15:40;102167.09;;;11.55;100.00
10060;BME280;5069;49.306;8.636;2022-11-11T12:27:24;102170.56;;;11.59;100.00
10060;BME280;5069;49.306;8.636;2022-11-11T12:30:50;102164.41;;;11.62;100.00
10060;BME280;5069;49.306;8.636;2022-11-11T12:34:55;102166.13;;;11.66;100.00
10060;BME280;5069;49.306;8.636;2022-11-11T12:38:34;102177.50;;;11.69;100.00
10060;BME280;5069;49.306;8.636;2022-11-11T12:42:26;102165.44;;;11.44;100.00
10060;BME280;5069;49.306;8.636;2022-11-11T13:03:47;102154.78;;;11.53;100.00
10060;BME280;5069;49.306;8.636;2022-11-11T13:11:16;102163.53;;;11.58;100.00
10060;BME280;5069;49.306;8.636;2022-11-11T13:18:25;102161.00;;;11.49;100.00
10060;BME280;5069;49.306;8.636;2022-11-11T13:21:52;102155.56;;;11.63;100.00
10060;BME280;5069;49.306;8.636;2022-11-11T13:25:25;102146.84;;;11.54;100.00
10060;BME280;5069;49.306;8.636;2022-11-11T13:28:48;102150.31;;;11.59;100.00
10060;BME280;5069;49.306;8.636;2022-11-11T13:32:13;102156.53;;;11.54;100.00
10060;BME280;5069;49.306;8.636;2022-11-11T13:35:47;102155.59;;;11.59;100.00
10060;BME280;5069;49.306;8.636;2022-11-11T13:39:39;102148.31;;;11.86;100.00
10060;BME280;5069;49.306;8.636;2022-11-11T13:42:58;102150.88;;;11.92;100.00
10060;BME280;5069;49.306;8.636;2022-11-11T13:46:42;102144.69;;;11.96;100.00
10060;BME280;5069;49.306;8.636;2022-11-11T13:50:22;102157.19;;;11.80;100.00
10060;BME280;5069;49.306;8.636;2022-11-11T13:53:46;102162.59;;;11.62;100.00
10060;BME280;5069;49.306;8.636;2022-11-11T13:57:20;102160.13;;;11.47;100.00
10060;BME280;5069;49.306;8.636;2022-11-11T14:00:42;102160.25;;;11.32;100.00
10060;BME280;5069;49.306;8.636;2022-11-11T14:04:04;102166.34;;;11.41;100.00
10060;BME280;5069;49.306;8.636;2022-11-11T14:14:54;102174.47;;;11.15;100.00
10060;BME280;5069;49.306;8.636;2022-11-11T14:21:54;102164.16;;;10.79;100.00
10060;BME280;5069;49.306;8.636;2022-11-11T14:25:24;102158.94;;;10.73;100.00
10060;BME280;5069;49.306;8.636;2022-11-11T14:28:59;102158.19;;;10.53;100.00
10060;BME280;5069;49.306;8.636;2022-11-11T14:32:31;102159.13;;;10.40;100.00
10060;BME280;5069;49.306;8.636;2022-11-11T14:36:05;102163.56;;;10.25;100.00
10060;BME280;5069;49.306;8.636;2022-11-11T14:39:46;102162.72;;;10.20;100.00
10060;BME280;5069;49.306;8.636;2022-11-11T14:43:32;102166.19;;;10.25;100.00
10060;BME280;5069;49.306;8.636;2022-11-11T14:53:51;102160.13;;;10.01;100.00
10060;BME280;5069;49.306;8.636;2022-11-11T14:57:20;102160.16;;;9.94;100.00
10060;BME280;5069;49.306;8.636;2022-11-11T15:00:57;102176.88;;;9.84;100.00
10060;BME280;5069;49.306;8.636;2022-11-11T15:04:18;102177.66;;;10.03;100.00
10060;BME280;5069;49.306;8.636;2022-11-11T15:25:44;102178.66;;;9.50;100.00
10060;BME280;5069;49.306;8.636;2022-11-11T15:29:27;102177.78;;;9.53;100.00
10060;BME280;5069;49.306;8.636;2022-11-11T15:33:03;102169.88;;;9.48;100.00
10060;BME280;5069;49.306;8.636;2022-11-11T15:36:42;102176.91;;;9.40;100.00
10060;BME280;5069;49.306;8.636;2022-11-11T15:40:06;102178.66;;;9.37;100.00
10060;BME280;5069;49.306;8.636;2022-11-11T15:43:32;102178.66;;;9.41;100.00
10060;BME280;5069;49.306;8.636;2022-11-11T15:46:54;102172.50;;;9.51;100.00
10060;BME280;5069;49.306;8.636;2022-11-11T15:50:29;102168.16;;;9.50;100.00
10060;BME280;5069;49.306;8.636;2022-11-11T15:53:49;102161.09;;;9.52;100.00
10060;BME280;5069;49.306;8.636;2022-11-11T15:57:20;102168.16;;;9.38;100.00
10060;BME280;5069;49.306;8.636;2022-11-11T16:00:41;102161.13;;;9.43;100.00
10060;BME280;5069;49.306;8.636;2022-11-11T16:04:01;102166.38;;;9.40;100.00
10060;BME280;5069;49.306;8.636;2022-11-11T16:07:28;102175.16;;;9.39;100.00
10060;BME280;5069;49.306;8.636;2022-11-11T16:10:56;102174.28;;;9.42;100.00
10060;BME280;5069;49.306;8.636;2022-11-11T16:14:29;102197.09;;;9.38;100.00
10060;BME280;5069;49.306;8.636;2022-11-11T16:17:53;102192.69;;;9.40;100.00
10060;BME280;5069;49.306;8.636;2022-11-11T16:24:42;102190.97;;;9.44;100.00
10060;BME280;5069;49.306;8.636;2022-11-11T16:28:04;102183.94;;;9.37;100.00
10060;BME280;5069;49.306;8.636;2022-11-11T16:34:45;102190.94;;;9.36;100.00
10060;BME280;5069;49.306;8.636;2022-11-11T16:38:07;102190.09;;;9.33;100.00
10060;BME280;5069;49.306;8.636;2022-11-11T16:41:30;102190.94;;;9.41;100.00
10060;BME280;5069;49.306;8.636;2022-11-11T16:45:02;102192.72;;;9.56;100.00
10060;BME280;5069;49.306;8.636;2022-11-11T16:51:57;102179.53;;;9.60;100.00
10060;BME280;5069;49.306;8.636;2022-11-11T16:55:31;102171.63;;;9.57;100.00
10060;BME280;5069;49.306;8.636;2022-11-11T16:58:59;102167.25;;;9.26;100.00
10060;BME280;5069;49.306;8.636;2022-11-11T17:02:21;102162.88;;;9.17;100.00
10060;BME280;5069;49.306;8.636;2022-11-11T17:09:31;102176.91;;;9.16;100.00
10060;BME280;5069;49.306;8.636;2022-11-11T17:12:52;102180.41;;;9.20;100.00
10060;BME280;5069;49.306;8.636;2022-11-11T17:16:12;102169.03;;;9.15;100.00
10060;BME280;5069;49.306;8.636;2022-11-11T17:19:32;102173.38;;;9.08;100.00
10060;BME280;5069;49.306;8.636;2022-11-11T17:22:54;102179.53;;;9.08;100.00
10060;BME280;5069;49.306;8.636;2022-11-11T17:26:16;102171.63;;;8.96;100.00
10060;BME280;5069;49.306;8.636;2022-11-11T17:29:36;102176.88;;;9.01;100.00
10060;BME280;5069;49.306;8.636;2022-11-11T17:32:58;102181.28;;;9.05;100.00
10060;BME280;5069;49.306;8.636;2022-11-11T17:36:18;102185.69;;;9.10;100.00
10060;BME280;5069;49.306;8.636;2022-11-11T17:39:38;102183.06;;;9.17;100.00
10060;BME280;5069;49.306;8.636;2022-11-11T17:43:02;102182.16;;;9.13;100.00
10060;BME280;5069;49.306;8.636;2022-11-11T17:46:22;102181.28;;;9.14;100.00
10060;BME280;5069;49.306;8.636;2022-11-11T17:49:42;102177.78;;;9.18;100.00
10060;BME280;5069;49.306;8.636;2022-11-11T17:53:16;102181.31;;;9.16;100.00
10060;BME280;5069;49.306;8.636;2022-11-11T17:56:36;102176.91;;;9.10;100.00
10060;BME280;5069;49.306;8.636;2022-11-11T17:59:57;102182.16;;;9.11;100.00
10060;BME280;5069;49.306;8.636;2022-11-11T18:03:17;102178.66;;;9.26;100.00
10060;BME280;5069;49.306;8.636;2022-11-11T18:06:37;102180.41;;;9.15;100.00
10060;BME280;5069;49.306;8.636;2022-11-11T18:09:57;102191.81;;;9.17;100.00
10060;BME280;5069;49.306;8.636;2022-11-11T18:13:18;102183.94;;;9.14;100.00
10060;BME280;5069;49.306;8.636;2022-11-11T18:16:38;102194.44;;;9.05;100.00
10060;BME280;5069;49.306;8.636;2022-11-11T18:19:58;102184.78;;;9.04;100.00
10060;BME280;5069;49.306;8.636;2022-11-11T18:23:18;102185.69;;;9.09;100.00
10060;BME280;5069;49.306;8.636;2022-11-11T18:26:39;102196.19;;;9.09;100.00
10060;BME280;5069;49.306;8.636;2022-11-11T18:29:58;102194.44;;;9.14;100.00
10060;BME280;5069;49.306;8.636;2022-11-11T18:33:18;102198.81;;;8.98;100.00
10060;BME280;5069;49.306;8.636;2022-11-11T18:36:38;102201.44;;;9.00;100.00
10060;BME280;5069;49.306;8.636;2022-11-11T18:39:58;102204.09;;;9.03;100.00
10060;BME280;5069;49.306;8.636;2022-11-11T18:43:18;102202.31;;;9.02;100.00
10060;BME280;5069;49.306;8.636;2022-11-11T18:46:38;102200.56;;;8.98;100.00
10060;BME280;5069;49.306;8.636;2022-11-11T18:49:58;102202.31;;;9.00;100.00
10060;BME280;5069;49.306;8.636;2022-11-11T18:53:18;102186.53;;;8.96;100.00
10060;BME280;5069;49.306;8.636;2022-11-11T18:56:38;102193.56;;;9.01;100.00
10060;BME280;5069;49.306;8.636;2022-11-11T19:00:01;102192.66;;;8.95;100.00
10060;BME280;5069;49.306;8.636;2022-11-11T19:03:21;102190.91;;;8.97;100.00
10060;BME280;5069;49.306;8.636;2022-11-11T19:06:42;102197.03;;;8.94;100.00
10060;BME280;5069;49.306;8.636;2022-11-11T19:10:02;102195.25;;;8.75;100.00
10060;BME280;5069;49.306;8.636;2022-11-11T19:13:22;102195.22;;;8.66;100.00
10060;BME280;5069;49.306;8.636;2022-11-11T19:16:43;102204.00;;;8.73;100.00
10060;BME280;5069;49.306;8.636;2022-11-11T19:20:04;102205.78;;;8.74;100.00
10060;BME280;5069;49.306;8.636;2022-11-11T19:23:25;102207.53;;;8.70;100.00
10060;BME280;5069;49.306;8.636;2022-11-11T19:26:48;102201.41;;;8.79;100.00
10060;BME280;5069;49.306;8.636;2022-11-11T19:30:08;102202.25;;;8.68;100.00
10060;BME280;5069;49.306;8.636;2022-11-11T19:33:31;102197.88;;;8.72;100.00
10060;BME280;5069;49.306;8.636;2022-11-11T19:36:52;102205.75;;;8.72;100.00
10060;BME280;5069;49.306;8.636;2022-11-11T19:40:12;102201.41;;;8.79;100.00
10060;BME280;5069;49.306;8.636;2022-11-11T19:43:33;102197.00;;;8.65;100.00
10060;BME280;5069;49.306;8.636;2022-11-11T19:46:53;102204.84;;;8.62;100.00
10060;BME280;5069;49.306;8.636;2022-11-11T19:50:14;102215.38;;;8.59;100.00